createdAt,value
2018-04-12T00:00:34.456Z,82.32
2018-04-12T00:03:00.422Z,82.61
2018-04-12T00:05:26.315Z,82.63
2018-04-12T00:07:52.172Z,82.44
2018-04-12T00:10:18.033Z,82.72
2018-04-12T00:12:43.943Z,82.83
2018-04-12T00:15:09.936Z,82.66
2018-04-12T00:17:35.791Z,82.96
2018-04-12T00:20:01.687Z,82.82
2018-04-12T00:22:27.537Z,82.73
2018-04-12T00:24:53.389Z,83.03
2018-04-12T00:27:19.380Z,83.05
2018-04-12T00:29:45.262Z,82.99
2018-04-12T00:32:11.111Z,82.76
2018-04-12T00:34:37.011Z,82.49
2018-04-12T00:37:02.893Z,82.45
2018-04-12T00:39:28.847Z,82.41
2018-04-12T00:41:54.814Z,82.66
2018-04-12T00:44:20.660Z,82.80
2018-04-12T00:46:46.539Z,83.00
2018-04-12T00:49:12.458Z,83.13
2018-04-12T00:51:38.403Z,83.12
2018-04-12T00:54:04.285Z,82.88
2018-04-12T00:56:30.362Z,83.20
2018-04-12T00:58:56.221Z,83.47
2018-04-12T01:01:22.088Z,83.35
2018-04-12T01:03:48.077Z,83.26
2018-04-12T01:06:14.215Z,83.29
2018-04-12T01:08:40.085Z,83.44
2018-04-12T01:11:06.027Z,83.42
2018-04-12T01:13:31.891Z,83.65
2018-04-12T01:15:57.830Z,83.92
2018-04-12T01:18:24.667Z,83.74
2018-04-12T01:20:50.609Z,83.93
2018-04-12T01:23:16.459Z,83.96
2018-04-12T01:25:42.363Z,84.08
2018-04-12T01:28:08.307Z,84.62
2018-04-12T01:30:34.170Z,84.61
2018-04-12T01:33:12.444Z,84.49
2018-04-12T01:35:38.313Z,84.76
2018-04-12T01:38:04.170Z,84.35
2018-04-12T01:40:30.189Z,84.70
2018-04-12T01:42:56.056Z,84.72
2018-04-12T01:45:21.915Z,85.08
2018-04-12T01:47:47.824Z,85.16
2018-04-12T01:50:13.697Z,84.98
2018-04-12T01:52:39.638Z,85.09
2018-04-12T01:55:05.564Z,85.21
2018-04-12T01:57:31.428Z,85.26
2018-04-12T01:59:57.343Z,85.40
2018-04-12T02:02:23.260Z,85.30
2018-04-12T02:04:50.027Z,85.35
2018-04-12T02:07:15.916Z,85.42
2018-04-12T02:09:41.815Z,85.34
2018-04-12T02:12:07.691Z,85.27
2018-04-12T02:14:33.587Z,85.70
2018-04-12T02:16:59.590Z,85.62
2018-04-12T02:19:25.522Z,85.81
2018-04-12T02:21:51.395Z,85.78
2018-04-12T02:24:17.315Z,85.82
2018-04-12T02:26:43.184Z,85.86
2018-04-12T02:29:09.131Z,85.88
2018-04-12T02:31:35.041Z,85.75
2018-04-12T02:34:00.979Z,85.84
2018-04-12T02:36:26.843Z,86.03
2018-04-12T02:38:53.115Z,85.95
2018-04-12T02:41:19.067Z,86.16
2018-04-12T02:43:44.931Z,86.23
2018-04-12T02:46:10.844Z,85.79
2018-04-12T02:48:36.692Z,86.12
2018-04-12T02:51:02.601Z,86.23
2018-04-12T02:53:29.444Z,86.26
2018-04-12T02:55:55.328Z,86.50
2018-04-12T02:58:21.174Z,86.53
2018-04-12T03:00:47.075Z,86.29
2018-04-12T03:03:12.940Z,86.16
2018-04-12T03:05:38.874Z,86.50
2018-04-12T03:08:04.770Z,86.51
2018-04-12T03:10:30.636Z,86.25
2018-04-12T03:12:56.486Z,86.34
2018-04-12T03:15:22.464Z,86.36
2018-04-12T03:17:48.411Z,86.71
2018-04-12T03:20:14.279Z,86.84
2018-04-12T03:22:40.192Z,86.97
2018-04-12T03:25:06.035Z,86.88
2018-04-12T03:27:31.892Z,86.63
2018-04-12T03:29:58.500Z,86.90
2018-04-12T03:32:24.349Z,86.90
2018-04-12T03:34:50.195Z,86.95
2018-04-12T03:37:16.092Z,87.01
2018-04-12T03:39:42.013Z,87.18
2018-04-12T03:42:08.004Z,87.05
2018-04-12T03:44:33.943Z,86.98
2018-04-12T03:46:59.800Z,87.18
2018-04-12T03:49:25.670Z,87.11
2018-04-12T03:51:51.589Z,87.23
2018-04-12T03:54:17.611Z,87.18
2018-04-12T03:56:43.474Z,87.19
2018-04-12T03:59:09.526Z,86.92
2018-04-12T04:01:35.397Z,87.26
2018-04-12T04:04:01.259Z,86.95
2018-04-12T04:06:27.231Z,86.99
2018-04-12T04:08:53.094Z,87.35
2018-04-12T04:11:18.951Z,87.21
2018-04-12T04:13:44.867Z,87.37
2018-04-12T04:16:23.008Z,87.45
2018-04-12T04:19:01.249Z,87.63
2018-04-12T04:21:27.103Z,87.39
2018-04-12T04:23:52.972Z,87.26
2018-04-12T04:26:18.879Z,87.30
2018-04-12T04:28:44.834Z,87.16
2018-04-12T04:31:10.804Z,87.13
2018-04-12T04:33:36.747Z,87.27
2018-04-12T04:36:02.615Z,87.22
2018-04-12T04:38:28.480Z,87.21
2018-04-12T04:40:54.390Z,87.09
2018-04-12T04:43:20.424Z,87.15
2018-04-12T04:45:46.305Z,87.25
2018-04-12T04:50:44.663Z,87.22
2018-04-12T04:53:10.507Z,87.15
2018-04-12T04:55:36.546Z,87.09
2018-04-12T04:58:02.451Z,87.02
2018-04-12T05:00:28.333Z,86.84
2018-04-12T05:02:54.264Z,86.88
2018-04-12T05:05:20.182Z,86.61
2018-04-12T05:07:46.291Z,86.51
2018-04-12T05:10:12.210Z,86.61
2018-04-12T05:12:38.075Z,86.26
2018-04-12T05:15:03.968Z,86.27
2018-04-12T05:17:29.908Z,86.30
2018-04-12T05:19:55.920Z,86.22
2018-04-12T05:22:21.802Z,86.07
2018-04-12T05:24:47.798Z,85.57
2018-04-12T05:27:13.656Z,85.26
2018-04-12T05:29:39.584Z,85.32
2018-04-12T05:32:05.675Z,85.14
2018-04-12T05:34:31.539Z,85.06
2018-04-12T05:36:57.409Z,84.37
2018-04-12T05:39:23.315Z,84.29
2018-04-12T05:41:49.175Z,83.82
2018-04-12T05:44:15.176Z,84.31
2018-04-12T05:46:41.087Z,83.96
2018-04-12T05:49:06.961Z,83.50
2018-04-12T05:51:32.852Z,83.21
2018-04-12T05:53:58.780Z,83.11
2018-04-12T05:56:24.809Z,82.92
2018-04-12T05:58:50.699Z,82.19
2018-04-12T06:01:16.640Z,82.48
2018-04-12T06:03:42.515Z,82.37
2018-04-12T06:06:08.399Z,81.91
2018-04-12T06:08:34.453Z,81.46
2018-04-12T06:11:00.405Z,81.29
2018-04-12T06:13:26.262Z,80.43
2018-04-12T06:15:52.188Z,80.44
2018-04-12T06:18:18.100Z,80.24
2018-04-12T06:20:44.195Z,80.80
2018-04-12T06:23:10.423Z,80.12
2018-04-12T06:25:36.387Z,79.48
2018-04-12T06:28:02.252Z,78.55
2018-04-12T06:30:28.167Z,78.36
2018-04-12T06:32:54.249Z,78.46
2018-04-12T06:35:20.129Z,78.35
2018-04-12T06:37:46.088Z,77.14
2018-04-12T06:40:11.963Z,76.88
2018-04-12T06:42:37.838Z,77.08
2018-04-12T06:45:03.987Z,77.36
2018-04-12T06:47:29.855Z,77.60
2018-04-12T06:49:55.858Z,77.30
2018-04-12T06:52:21.793Z,77.64
2018-04-12T06:54:47.672Z,76.83
2018-04-12T06:57:13.720Z,76.32
2018-04-12T06:59:39.676Z,76.18
2018-04-12T07:02:05.543Z,76.58
2018-04-12T07:04:31.420Z,75.27
2018-04-12T07:06:57.382Z,75.67
2018-04-12T07:09:23.426Z,75.43
2018-04-12T07:11:49.275Z,75.57
2018-04-12T07:14:15.583Z,75.46
2018-04-12T07:16:41.467Z,74.65
2018-04-12T07:19:07.331Z,75.30
2018-04-12T07:21:33.436Z,74.16
2018-04-12T07:23:59.299Z,74.73
2018-04-12T07:26:25.177Z,74.38
2018-04-12T07:28:51.108Z,74.14
2018-04-12T07:31:16.975Z,74.02
2018-04-12T07:33:42.971Z,73.03
2018-04-12T07:36:09.651Z,72.16
2018-04-12T07:38:35.515Z,72.42
2018-04-12T07:41:01.448Z,70.11
2018-04-12T07:43:27.367Z,71.09
2018-04-12T07:45:53.359Z,69.49
2018-04-12T07:48:19.239Z,69.75
2018-04-12T07:50:45.127Z,69.49
2018-04-12T07:53:10.979Z,67.63
2018-04-12T07:55:36.844Z,68.74
2018-04-12T07:58:02.916Z,68.19
2018-04-12T08:00:28.771Z,67.03
2018-04-12T08:02:54.619Z,67.95
2018-04-12T08:05:20.686Z,67.48
2018-04-12T08:07:46.533Z,69.50
2018-04-12T08:10:12.542Z,69.35
2018-04-12T08:12:38.463Z,68.53
2018-04-12T08:15:04.333Z,69.90
2018-04-12T08:17:30.195Z,68.56
2018-04-12T08:19:56.103Z,68.27
2018-04-12T08:22:22.200Z,66.15
2018-04-12T08:24:48.051Z,65.96
2018-04-12T08:27:13.974Z,66.51
2018-04-12T08:29:39.883Z,64.09
2018-04-12T08:32:05.733Z,64.16
2018-04-12T08:34:31.802Z,63.38
2018-04-12T08:36:57.648Z,62.31
2018-04-12T08:39:23.633Z,63.37
2018-04-12T08:41:49.539Z,63.36
2018-04-12T08:44:15.403Z,64.75
2018-04-12T08:46:41.400Z,64.58
2018-04-12T08:49:07.796Z,63.64
2018-04-12T08:51:33.651Z,63.67
2018-04-12T08:53:59.498Z,63.87
2018-04-12T08:56:25.411Z,62.11
2018-04-12T08:58:51.446Z,61.29
2018-04-12T09:01:17.354Z,61.72
2018-04-12T09:03:43.255Z,61.09
2018-04-12T09:06:09.116Z,61.35
2018-04-12T09:08:34.964Z,59.78
2018-04-12T09:11:01.022Z,59.18
2018-04-12T09:13:26.892Z,56.22
2018-04-12T09:15:52.769Z,55.41
2018-04-12T09:18:18.705Z,56.26
2018-04-12T09:20:44.569Z,54.01
2018-04-12T09:23:10.592Z,53.51
2018-04-12T09:25:36.513Z,53.61
2018-04-12T09:28:02.371Z,54.17
2018-04-12T09:30:28.228Z,55.57
2018-04-12T09:32:54.129Z,54.95
2018-04-12T09:35:20.133Z,53.90
2018-04-12T09:37:45.991Z,54.01
2018-04-12T09:40:11.904Z,53.16
2018-04-12T09:42:37.802Z,53.35
2018-04-12T09:45:03.676Z,52.38
2018-04-12T09:47:29.721Z,54.59
2018-04-12T09:49:55.595Z,52.06
2018-04-12T09:52:21.895Z,51.38
2018-04-12T09:54:47.972Z,52.28
2018-04-12T09:57:13.928Z,50.64
2018-04-12T09:59:39.980Z,49.94
2018-04-12T10:02:05.979Z,49.38
2018-04-12T10:04:31.921Z,48.64
2018-04-12T10:07:03.892Z,49.85
2018-04-12T10:09:29.822Z,49.74
2018-04-12T10:11:55.869Z,51.57
2018-04-12T10:14:21.752Z,49.91
2018-04-12T10:16:47.759Z,49.36
2018-04-12T10:19:13.672Z,50.14
2018-04-12T10:21:39.580Z,50.24
2018-04-12T10:24:05.616Z,50.72
2018-04-12T10:26:31.503Z,49.92
2018-04-12T10:28:57.388Z,49.58
2018-04-12T10:31:23.330Z,49.95
2018-04-12T10:33:49.187Z,50.54
2018-04-12T10:36:15.200Z,49.15
2018-04-12T10:38:41.550Z,49.53
2018-04-12T10:41:07.410Z,49.92
2018-04-12T10:43:33.276Z,49.39
2018-04-12T10:45:59.187Z,49.56
2018-04-12T10:48:25.216Z,48.39
2018-04-12T10:50:51.088Z,48.52
2018-04-12T10:53:17.035Z,47.88
2018-04-12T10:55:42.923Z,47.67
2018-04-12T10:58:08.788Z,45.41
2018-04-12T11:00:34.863Z,46.17
2018-04-12T11:03:00.724Z,43.92
2018-04-12T11:05:26.660Z,43.34
2018-04-12T11:07:52.595Z,43.23
2018-04-12T11:10:18.479Z,42.55
2018-04-12T11:12:44.539Z,41.42
2018-04-12T11:15:10.443Z,41.49
2018-04-12T11:17:36.327Z,42.57
2018-04-12T11:20:02.214Z,40.70
2018-04-12T11:22:28.161Z,39.84
2018-04-12T11:24:54.203Z,39.65
2018-04-12T11:27:20.099Z,42.37
2018-04-12T11:29:46.027Z,39.61
2018-04-12T11:32:11.884Z,39.41
2018-04-12T11:34:37.784Z,39.99
2018-04-12T11:37:03.847Z,38.63
2018-04-12T11:39:29.736Z,39.71
2018-04-12T11:41:55.620Z,39.15
2018-04-12T11:44:21.549Z,39.26
2018-04-12T11:46:47.427Z,38.90
2018-04-12T11:49:13.454Z,38.13
2018-04-12T11:51:39.369Z,39.48
2018-04-12T11:54:05.230Z,38.95
2018-04-12T11:56:31.156Z,39.69
2018-04-12T11:58:57.128Z,37.79
2018-04-12T12:01:23.143Z,37.62
2018-04-12T12:03:49.084Z,37.45
2018-04-12T12:06:15.007Z,38.16
2018-04-12T12:08:40.869Z,38.59
2018-04-12T12:11:06.765Z,38.91
2018-04-12T12:13:32.812Z,38.46
2018-04-12T12:15:58.676Z,38.14
2018-04-12T12:18:24.664Z,37.99
2018-04-12T12:20:50.616Z,38.63
2018-04-12T12:23:16.490Z,38.45
2018-04-12T12:25:42.512Z,37.29
2018-04-12T12:28:08.435Z,38.22
2018-04-12T12:30:34.315Z,37.90
2018-04-12T12:33:00.184Z,37.29
2018-04-12T12:35:26.103Z,36.65
2018-04-12T12:37:52.151Z,37.36
2018-04-12T12:40:18.026Z,37.64
2018-04-12T12:42:43.948Z,38.42
2018-04-12T12:45:09.835Z,37.67
2018-04-12T12:47:35.851Z,38.62
2018-04-12T12:50:01.921Z,38.18
2018-04-12T12:52:27.807Z,37.12
2018-04-12T12:54:53.667Z,38.17
2018-04-12T12:57:19.577Z,37.40
2018-04-12T12:59:45.459Z,36.74
2018-04-12T13:02:11.534Z,37.32
2018-04-12T13:04:37.479Z,37.53
2018-04-12T13:07:03.365Z,37.58
2018-04-12T13:09:29.348Z,36.63
2018-04-12T13:11:55.256Z,38.47
2018-04-12T13:14:21.258Z,36.93
2018-04-12T13:16:47.128Z,37.11
2018-04-12T13:19:13.225Z,38.50
2018-04-12T13:21:39.131Z,37.85
2018-04-12T13:24:05.018Z,36.30
2018-04-12T13:26:31.083Z,37.41
2018-04-12T13:28:56.942Z,35.69
2018-04-12T13:31:23.889Z,35.66
2018-04-12T13:33:49.827Z,34.50
2018-04-12T13:36:15.699Z,34.25
2018-04-12T13:38:42.193Z,34.09
2018-04-12T13:41:08.664Z,34.29
2018-04-12T13:43:34.527Z,34.48
2018-04-12T13:46:00.407Z,34.95
2018-04-12T13:48:26.424Z,35.90
2018-04-12T13:50:52.448Z,35.41
2018-04-12T13:53:18.316Z,35.39
2018-04-12T13:55:44.261Z,35.17
2018-04-12T13:58:10.172Z,34.56
2018-04-12T14:00:36.044Z,35.18
2018-04-12T14:03:02.082Z,35.43
2018-04-12T14:05:28.051Z,35.46
2018-04-12T14:07:53.947Z,35.96
2018-04-12T14:10:19.851Z,36.21
2018-04-12T14:12:45.747Z,36.11
2018-04-12T14:15:11.804Z,34.89
2018-04-12T14:17:37.712Z,34.65
2018-04-12T14:20:03.580Z,34.51
2018-04-12T14:22:29.449Z,34.93
2018-04-12T14:24:55.367Z,35.58
2018-04-12T14:27:21.376Z,35.91
2018-04-12T14:29:47.304Z,35.96
2018-04-12T14:32:13.188Z,35.74
2018-04-12T14:34:39.044Z,35.83
2018-04-12T14:37:04.991Z,35.98
2018-04-12T14:39:31.069Z,35.34
2018-04-12T14:41:56.954Z,35.87
2018-04-12T14:44:22.866Z,36.14
2018-04-12T14:46:48.788Z,37.00
2018-04-12T14:49:14.656Z,35.88
2018-04-12T14:51:40.669Z,36.08
2018-04-12T14:54:07.140Z,36.05
2018-04-12T14:56:33.007Z,36.01
2018-04-12T14:58:58.872Z,35.87
2018-04-12T15:01:24.786Z,34.98
2018-04-12T15:03:50.810Z,35.44
2018-04-12T15:06:16.704Z,34.63
2018-04-12T15:08:42.632Z,36.19
2018-04-12T15:11:08.516Z,35.17
2018-04-12T15:13:34.375Z,36.01
2018-04-12T15:16:00.439Z,36.07
2018-04-12T15:18:26.292Z,36.02
2018-04-12T15:20:52.155Z,37.19
2018-04-12T15:23:18.228Z,36.47
2018-04-12T15:25:44.099Z,35.37
2018-04-12T15:28:10.135Z,35.56
2018-04-12T15:30:36.270Z,37.70
2018-04-12T15:33:02.135Z,36.40
2018-04-12T15:35:28.019Z,38.12
2018-04-12T15:37:53.926Z,38.00
2018-04-12T15:40:19.940Z,35.95
2018-04-12T15:42:45.827Z,37.21
2018-04-12T15:45:11.770Z,36.04
2018-04-12T15:47:37.646Z,37.17
2018-04-12T15:50:03.543Z,36.29
2018-04-12T15:52:29.591Z,38.35
2018-04-12T15:54:55.494Z,37.27
2018-04-12T15:57:21.363Z,36.37
2018-04-12T15:59:47.271Z,36.83
2018-04-12T16:02:13.145Z,37.36
2018-04-12T16:04:39.159Z,38.49
2018-04-12T16:07:05.077Z,37.86
2018-04-12T16:09:30.946Z,38.08
2018-04-12T16:11:56.812Z,37.85
2018-04-12T16:14:22.742Z,37.36
2018-04-12T16:16:48.742Z,38.10
2018-04-12T16:19:14.623Z,37.30
2018-04-12T16:21:40.553Z,38.34
2018-04-12T16:24:06.427Z,41.40
2018-04-12T16:26:32.289Z,42.17
2018-04-12T16:28:58.332Z,44.19
2018-04-12T16:31:24.196Z,44.57
2018-04-12T16:33:50.075Z,45.43
2018-04-12T16:36:15.980Z,46.06
2018-04-12T16:38:41.856Z,45.69
2018-04-12T16:41:07.902Z,46.64
2018-04-12T16:43:33.847Z,47.30
2018-04-12T16:45:59.711Z,47.70
2018-04-12T16:48:25.595Z,47.83
2018-04-12T16:50:51.684Z,47.87
2018-04-12T16:53:17.702Z,48.71
2018-04-12T16:55:43.591Z,49.40
2018-04-12T16:58:09.520Z,49.34
2018-04-12T17:00:35.383Z,48.90
2018-04-12T17:03:01.264Z,49.00
2018-04-12T17:05:27.312Z,50.08
2018-04-12T17:07:53.212Z,49.75
2018-04-12T17:10:19.062Z,50.17
2018-04-12T17:12:44.976Z,50.21
2018-04-12T17:15:10.854Z,50.26
2018-04-12T17:17:36.891Z,50.34
2018-04-12T17:20:02.812Z,50.70
2018-04-12T17:22:28.684Z,51.16
2018-04-12T17:24:54.539Z,50.89
2018-04-12T17:27:20.464Z,50.88
2018-04-12T17:29:46.475Z,51.34
2018-04-12T17:32:12.344Z,50.85
2018-04-12T17:34:38.251Z,51.19
2018-04-12T17:37:04.128Z,51.18
2018-04-12T17:39:30.002Z,52.19
2018-04-12T17:41:56.076Z,52.33
2018-04-12T17:44:21.939Z,52.49
2018-04-12T17:46:47.843Z,52.62
2018-04-12T17:49:13.731Z,52.19
2018-04-12T17:51:39.618Z,52.83
2018-04-12T17:54:05.608Z,53.03
2018-04-12T17:56:31.516Z,53.69
2018-04-12T17:58:57.392Z,53.96
2018-04-12T18:01:23.270Z,54.63
2018-04-12T18:03:49.192Z,54.29
2018-04-12T18:06:15.213Z,54.79
2018-04-12T18:08:41.088Z,55.08
2018-04-12T18:11:07.017Z,55.28
2018-04-12T18:13:32.917Z,56.03
2018-04-12T18:15:58.798Z,55.26
2018-04-12T18:18:24.835Z,55.24
2018-04-12T18:20:50.715Z,55.75
2018-04-12T18:23:16.641Z,56.46
2018-04-12T18:25:42.586Z,56.25
2018-04-12T18:28:08.467Z,56.64
2018-04-12T18:30:34.524Z,57.21
2018-04-12T18:33:00.468Z,57.00
2018-04-12T18:35:26.332Z,57.26
2018-04-12T18:37:52.219Z,57.01
2018-04-12T18:40:18.131Z,57.30
2018-04-12T18:42:44.140Z,56.80
2018-04-12T18:45:10.016Z,57.70
2018-04-12T18:47:35.945Z,57.57
2018-04-12T18:50:01.860Z,58.04
2018-04-12T18:52:27.701Z,58.25
2018-04-12T18:54:53.772Z,58.02
2018-04-12T18:57:19.713Z,58.59
2018-04-12T18:59:45.649Z,58.38
2018-04-12T19:02:11.555Z,58.46
2018-04-12T19:04:37.431Z,58.78
2018-04-12T19:07:03.927Z,58.87
2018-04-12T19:09:29.892Z,58.97
2018-04-12T19:11:55.784Z,59.37
2018-04-12T19:14:21.668Z,59.57
2018-04-12T19:16:47.577Z,59.55
2018-04-12T19:19:13.578Z,60.10
2018-04-12T19:21:39.460Z,59.98
2018-04-12T19:24:05.556Z,59.69
2018-04-12T19:26:32.456Z,60.32
2018-04-12T19:28:58.360Z,60.41
2018-04-12T19:31:24.489Z,60.42
2018-04-12T19:33:50.376Z,60.86
2018-04-12T19:36:16.256Z,61.18
2018-04-12T19:38:42.178Z,61.47
2018-04-12T19:41:08.111Z,61.69
2018-04-12T19:43:34.190Z,61.76
2018-04-12T19:46:00.121Z,62.08
2018-04-12T19:48:25.978Z,61.85
2018-04-12T19:50:52.092Z,61.72
2018-04-12T19:53:18.215Z,61.61
2018-04-12T19:55:44.236Z,62.18
2018-04-12T19:58:10.099Z,62.00
2018-04-12T20:00:36.016Z,62.25
2018-04-12T20:03:01.881Z,62.82
2018-04-12T20:05:27.755Z,62.72
2018-04-12T20:07:53.818Z,63.39
2018-04-12T20:10:19.698Z,63.42
2018-04-12T20:12:45.593Z,63.27
2018-04-12T20:15:11.528Z,63.80
2018-04-12T20:17:37.407Z,64.21
2018-04-12T20:20:03.480Z,63.84
2018-04-12T20:22:29.446Z,64.63
2018-04-12T20:24:55.316Z,64.60
2018-04-12T20:27:21.377Z,64.87
2018-04-12T20:29:47.456Z,64.46
2018-04-12T20:32:13.466Z,64.83
2018-04-12T20:34:39.340Z,65.03
2018-04-12T20:37:05.375Z,65.48
2018-04-12T20:39:31.311Z,65.80
2018-04-12T20:41:57.147Z,65.58
2018-04-12T20:44:23.209Z,65.57
2018-04-12T20:46:49.095Z,65.52
2018-04-12T20:49:14.958Z,66.02
2018-04-12T20:51:40.871Z,66.45
2018-04-12T20:54:06.748Z,66.66
2018-04-12T20:56:32.755Z,66.69
2018-04-12T20:58:58.656Z,67.24
2018-04-12T21:01:24.527Z,67.44
2018-04-12T21:03:50.392Z,67.43
2018-04-12T21:06:16.321Z,67.57
2018-04-12T21:08:42.364Z,67.77
2018-04-12T21:11:08.223Z,67.46
2018-04-12T21:13:34.135Z,67.75
2018-04-12T21:16:00.049Z,68.05
2018-04-12T21:18:25.912Z,67.84
2018-04-12T21:20:51.947Z,68.15
2018-04-12T21:23:17.816Z,68.41
2018-04-12T21:25:43.731Z,68.34
2018-04-12T21:28:09.619Z,68.11
2018-04-12T21:30:35.547Z,68.55
2018-04-12T21:33:01.572Z,68.68
2018-04-12T21:35:27.480Z,69.06
2018-04-12T21:37:53.331Z,68.78
2018-04-12T21:40:19.203Z,68.93
2018-04-12T21:42:45.122Z,68.15
2018-04-12T21:45:11.151Z,68.34
2018-04-12T21:47:37.024Z,68.74
2018-04-12T21:50:03.109Z,68.90
2018-04-12T21:52:28.981Z,68.95
2018-04-12T21:54:54.867Z,69.05
2018-04-12T21:57:20.916Z,68.24
2018-04-12T21:59:46.792Z,67.81
2018-04-12T22:02:12.664Z,67.43
2018-04-12T22:04:38.579Z,67.51
2018-04-12T22:07:04.440Z,67.55
2018-04-12T22:09:30.439Z,67.64
2018-04-12T22:11:56.349Z,68.07
2018-04-12T22:14:22.247Z,68.07
2018-04-12T22:16:48.156Z,68.09
2018-04-12T22:19:14.065Z,68.10
2018-04-12T22:21:40.082Z,68.27
2018-04-12T22:24:05.953Z,68.65
2018-04-12T22:26:31.871Z,68.57
2018-04-12T22:28:57.726Z,68.88
2018-04-12T22:31:23.648Z,68.49
2018-04-12T22:33:49.728Z,67.94
2018-04-12T22:36:15.591Z,68.12
2018-04-12T22:38:41.467Z,68.39
2018-04-12T22:41:07.387Z,68.18
2018-04-12T22:43:33.256Z,68.23
2018-04-12T22:45:59.288Z,67.80
2018-04-12T22:48:25.212Z,67.72
2018-04-12T22:50:51.073Z,67.87
2018-04-12T22:53:16.943Z,66.99
2018-04-12T22:55:42.858Z,67.61
2018-04-12T22:58:08.915Z,67.35
2018-04-12T23:00:34.795Z,67.31
2018-04-12T23:03:00.720Z,67.09
2018-04-12T23:05:26.595Z,67.06
2018-04-12T23:07:52.464Z,66.78
2018-04-12T23:10:18.526Z,66.81
2018-04-12T23:12:44.408Z,66.68
2018-04-12T23:15:10.283Z,66.49
2018-04-12T23:17:36.327Z,67.25
2018-04-12T23:20:02.244Z,66.46
2018-04-12T23:22:28.277Z,66.98
2018-04-12T23:24:54.216Z,66.66
2018-04-12T23:27:20.075Z,66.04
2018-04-12T23:29:45.965Z,66.28
2018-04-12T23:32:11.906Z,66.17
2018-04-12T23:34:37.899Z,66.20
2018-04-12T23:37:03.779Z,66.46
2018-04-12T23:39:29.716Z,66.52
2018-04-12T23:41:55.602Z,66.89
2018-04-12T23:44:21.487Z,66.27
2018-04-12T23:46:47.541Z,66.56
2018-04-12T23:49:13.412Z,66.92
2018-04-12T23:51:39.271Z,66.29
2018-04-12T23:54:05.192Z,66.33
2018-04-12T23:56:31.064Z,66.35
2018-04-12T23:58:57.093Z,65.84
